sensor_id;sensor_type;location;lat;lon;timestamp;temperature;humidity
66740;DHT22;53653;52.188;8.602;2023-11-21T00:00:46;6.65;96.40
66740;DHT22;53653;52.188;8.602;2023-11-21T00:03:12;6.68;96.90
66740;DHT22;53653;52.188;8.602;2023-11-21T00:05:43;6.75;96.60
66740;DHT22;53653;52.188;8.602;2023-11-21T00:08:08;6.79;96.74
66740;DHT22;53653;52.188;8.602;2023-11-21T00:10:34;6.83;96.52
66740;DHT22;53653;52.188;8.602;2023-11-21T00:13:00;6.93;96.51
66740;DHT22;53653;52.188;8.602;2023-11-21T00:15:28;6.99;96.43
66740;DHT22;53653;52.188;8.602;2023-11-21T00:17:53;7.01;96.27
66740;DHT22;53653;52.188;8.602;2023-11-21T00:20:18;7.06;96.28
66740;DHT22;53653;52.188;8.602;2023-11-21T00:22:44;7.07;96.25
66740;DHT22;53653;52.188;8.602;2023-11-21T00:25:10;7.14;96.50
66740;DHT22;53653;52.188;8.602;2023-11-21T00:27:35;7.13;96.83
66740;DHT22;53653;52.188;8.602;2023-11-21T00:30:04;7.17;96.76
66740;DHT22;53653;52.188;8.602;2023-11-21T00:32:31;7.24;96.60
66740;DHT22;53653;52.188;8.602;2023-11-21T00:34:57;7.32;96.47
66740;DHT22;53653;52.188;8.602;2023-11-21T00:37:22;7.35;96.41
66740;DHT22;53653;52.188;8.602;2023-11-21T00:39:49;7.43;96.42
66740;DHT22;53653;52.188;8.602;2023-11-21T00:42:14;7.45;96.67
66740;DHT22;53653;52.188;8.602;2023-11-21T00:44:39;7.50;96.54
66740;DHT22;53653;52.188;8.602;2023-11-21T00:47:05;7.51;96.51
66740;DHT22;53653;52.188;8.602;2023-11-21T00:49:30;7.54;96.52
66740;DHT22;53653;52.188;8.602;2023-11-21T00:51:56;7.59;96.83
66740;DHT22;53653;52.188;8.602;2023-11-21T00:54:26;7.58;96.93
66740;DHT22;53653;52.188;8.602;2023-11-21T00:56:52;7.61;97.41
66740;DHT22;53653;52.188;8.602;2023-11-21T00:59:17;7.65;97.11
66740;DHT22;53653;52.188;8.602;2023-11-21T01:01:48;7.66;97.27
66740;DHT22;53653;52.188;8.602;2023-11-21T01:04:19;7.66;97.28
66740;DHT22;53653;52.188;8.602;2023-11-21T01:06:45;7.75;97.11
66740;DHT22;53653;52.188;8.602;2023-11-21T01:09:10;7.78;97.09
66740;DHT22;53653;52.188;8.602;2023-11-21T01:11:39;7.76;97.04
66740;DHT22;53653;52.188;8.602;2023-11-21T01:14:04;7.83;96.99
66740;DHT22;53653;52.188;8.602;2023-11-21T01:16:30;7.85;96.94
66740;DHT22;53653;52.188;8.602;2023-11-21T01:18:58;7.85;96.98
66740;DHT22;53653;52.188;8.602;2023-11-21T01:21:24;7.89;96.98
66740;DHT22;53653;52.188;8.602;2023-11-21T01:23:50;7.87;96.95
66740;DHT22;53653;52.188;8.602;2023-11-21T01:26:15;7.90;96.87
66740;DHT22;53653;52.188;8.602;2023-11-21T01:28:41;7.90;96.80
66740;DHT22;53653;52.188;8.602;2023-11-21T01:31:06;7.92;96.83
66740;DHT22;53653;52.188;8.602;2023-11-21T01:33:32;7.93;96.87
66740;DHT22;53653;52.188;8.602;2023-11-21T01:35:58;7.90;96.86
66740;DHT22;53653;52.188;8.602;2023-11-21T01:38:25;7.92;96.92
66740;DHT22;53653;52.188;8.602;2023-11-21T01:40:50;7.92;96.96
66740;DHT22;53653;52.188;8.602;2023-11-21T01:43:17;7.90;97.00
66740;DHT22;53653;52.188;8.602;2023-11-21T01:45:43;7.89;97.00
66740;DHT22;53653;52.188;8.602;2023-11-21T01:48:10;7.95;97.00
66740;DHT22;53653;52.188;8.602;2023-11-21T01:50:35;7.93;97.07
66740;DHT22;53653;52.188;8.602;2023-11-21T01:53:01;7.96;96.98
66740;DHT22;53653;52.188;8.602;2023-11-21T01:55:27;7.93;97.20
66740;DHT22;53653;52.188;8.602;2023-11-21T01:57:53;7.83;97.62
66740;DHT22;53653;52.188;8.602;2023-11-21T02:00:19;7.78;97.74
66740;DHT22;53653;52.188;8.602;2023-11-21T02:02:46;7.78;97.76
66740;DHT22;53653;52.188;8.602;2023-11-21T02:05:16;7.74;97.91
66740;DHT22;53653;52.188;8.602;2023-11-21T02:07:44;7.72;98.08
66740;DHT22;53653;52.188;8.602;2023-11-21T02:10:11;7.74;98.08
66740;DHT22;53653;52.188;8.602;2023-11-21T02:12:43;7.75;97.92
66740;DHT22;53653;52.188;8.602;2023-11-21T02:15:13;7.74;98.00
66740;DHT22;53653;52.188;8.602;2023-11-21T02:17:52;7.76;97.90
66740;DHT22;53653;52.188;8.602;2023-11-21T02:20:20;7.81;97.84
66740;DHT22;53653;52.188;8.602;2023-11-21T02:22:53;7.85;97.75
66740;DHT22;53653;52.188;8.602;2023-11-21T02:25:24;7.93;97.61
66740;DHT22;53653;52.188;8.602;2023-11-21T02:27:50;7.99;97.43
66740;DHT22;53653;52.188;8.602;2023-11-21T02:30:16;8.00;97.23
66740;DHT22;53653;52.188;8.602;2023-11-21T02:32:42;8.03;97.05
66740;DHT22;53653;52.188;8.602;2023-11-21T02:35:08;8.05;96.90
66740;DHT22;53653;52.188;8.602;2023-11-21T02:37:34;8.07;96.82
66740;DHT22;53653;52.188;8.602;2023-11-21T02:40:01;8.05;96.73
66740;DHT22;53653;52.188;8.602;2023-11-21T02:42:29;8.07;96.74
66740;DHT22;53653;52.188;8.602;2023-11-21T02:44:55;8.09;96.69
66740;DHT22;53653;52.188;8.602;2023-11-21T02:47:20;8.12;96.60
66740;DHT22;53653;52.188;8.602;2023-11-21T02:49:45;8.13;96.52
66740;DHT22;53653;52.188;8.602;2023-11-21T02:52:11;8.12;96.53
66740;DHT22;53653;52.188;8.602;2023-11-21T02:54:36;8.20;96.48
66740;DHT22;53653;52.188;8.602;2023-11-21T02:57:02;8.22;96.23
66740;DHT22;53653;52.188;8.602;2023-11-21T02:59:29;8.23;96.05
66740;DHT22;53653;52.188;8.602;2023-11-21T03:01:54;8.22;96.11
66740;DHT22;53653;52.188;8.602;2023-11-21T03:04:22;8.22;96.22
66740;DHT22;53653;52.188;8.602;2023-11-21T03:06:48;8.24;96.12
66740;DHT22;53653;52.188;8.602;2023-11-21T03:09:14;8.29;96.03
66740;DHT22;53653;52.188;8.602;2023-11-21T03:11:39;8.26;96.06
66740;DHT22;53653;52.188;8.602;2023-11-21T03:14:05;8.32;95.94
66740;DHT22;53653;52.188;8.602;2023-11-21T03:16:32;8.32;95.94
66740;DHT22;53653;52.188;8.602;2023-11-21T03:18:57;8.27;95.95
66740;DHT22;53653;52.188;8.602;2023-11-21T03:21:24;8.29;95.86
66740;DHT22;53653;52.188;8.602;2023-11-21T03:23:50;8.24;95.99
66740;DHT22;53653;52.188;8.602;2023-11-21T03:26:16;8.20;96.13
66740;DHT22;53653;52.188;8.602;2023-11-21T03:28:42;8.22;96.20
66740;DHT22;53653;52.188;8.602;2023-11-21T03:31:07;8.22;96.13
66740;DHT22;53653;52.188;8.602;2023-11-21T03:33:34;8.23;96.06
66740;DHT22;53653;52.188;8.602;2023-11-21T03:36:00;8.19;96.07
66740;DHT22;53653;52.188;8.602;2023-11-21T03:38:26;8.20;96.02
66740;DHT22;53653;52.188;8.602;2023-11-21T03:40:51;8.20;96.09
66740;DHT22;53653;52.188;8.602;2023-11-21T03:43:16;8.22;96.09
66740;DHT22;53653;52.188;8.602;2023-11-21T03:45:42;8.23;96.12
66740;DHT22;53653;52.188;8.602;2023-11-21T03:48:09;8.24;96.06
66740;DHT22;53653;52.188;8.602;2023-11-21T03:50:37;8.23;96.04
66740;DHT22;53653;52.188;8.602;2023-11-21T03:53:02;8.23;96.13
66740;DHT22;53653;52.188;8.602;2023-11-21T03:55:29;8.20;96.26
66740;DHT22;53653;52.188;8.602;2023-11-21T03:57:56;8.23;96.23
66740;DHT22;53653;52.188;8.602;2023-11-21T04:00:22;8.27;96.17
66740;DHT22;53653;52.188;8.602;2023-11-21T04:02:47;8.32;96.12
66740;DHT22;53653;52.188;8.602;2023-11-21T04:05:13;8.29;96.13
66740;DHT22;53653;52.188;8.602;2023-11-21T04:07:38;8.30;96.15
66740;DHT22;53653;52.188;8.602;2023-11-21T04:10:06;8.29;96.19
66740;DHT22;53653;52.188;8.602;2023-11-21T04:12:34;8.24;96.27
66740;DHT22;53653;52.188;8.602;2023-11-21T04:15:00;8.23;96.46
66740;DHT22;53653;52.188;8.602;2023-11-21T04:17:25;8.23;96.59
66740;DHT22;53653;52.188;8.602;2023-11-21T04:19:50;8.24;96.65
66740;DHT22;53653;52.188;8.602;2023-11-21T04:22:16;8.27;96.68
66740;DHT22;53653;52.188;8.602;2023-11-21T04:24:41;8.26;96.67
66740;DHT22;53653;52.188;8.602;2023-11-21T04:27:07;8.27;96.69
66740;DHT22;53653;52.188;8.602;2023-11-21T04:29:36;8.27;96.70
66740;DHT22;53653;52.188;8.602;2023-11-21T04:32:04;8.30;96.65
66740;DHT22;53653;52.188;8.602;2023-11-21T04:34:30;8.33;96.66
66740;DHT22;53653;52.188;8.602;2023-11-21T04:36:58;8.34;96.60
66740;DHT22;53653;52.188;8.602;2023-11-21T04:39:25;8.38;96.42
66740;DHT22;53653;52.188;8.602;2023-11-21T04:41:50;8.38;96.36
66740;DHT22;53653;52.188;8.602;2023-11-21T04:44:16;8.40;96.35
66740;DHT22;53653;52.188;8.602;2023-11-21T04:46:42;8.45;96.23
66740;DHT22;53653;52.188;8.602;2023-11-21T04:49:07;8.45;96.13
66740;DHT22;53653;52.188;8.602;2023-11-21T04:51:33;8.43;96.10
66740;DHT22;53653;52.188;8.602;2023-11-21T04:53:59;8.40;96.08
66740;DHT22;53653;52.188;8.602;2023-11-21T04:56:26;8.40;96.16
66740;DHT22;53653;52.188;8.602;2023-11-21T04:58:55;8.33;96.28
66740;DHT22;53653;52.188;8.602;2023-11-21T05:01:21;8.32;96.38
66740;DHT22;53653;52.188;8.602;2023-11-21T05:03:46;8.32;96.48
66740;DHT22;53653;52.188;8.602;2023-11-21T05:06:12;8.33;96.41
66740;DHT22;53653;52.188;8.602;2023-11-21T05:08:39;8.29;96.49
66740;DHT22;53653;52.188;8.602;2023-11-21T05:11:05;8.30;96.58
66740;DHT22;53653;52.188;8.602;2023-11-21T05:13:33;8.32;96.51
66740;DHT22;53653;52.188;8.602;2023-11-21T05:15:59;8.27;96.61
66740;DHT22;53653;52.188;8.602;2023-11-21T05:18:24;8.29;96.72
66740;DHT22;53653;52.188;8.602;2023-11-21T05:20:55;8.36;96.62
66740;DHT22;53653;52.188;8.602;2023-11-21T05:23:21;8.33;96.47
66740;DHT22;53653;52.188;8.602;2023-11-21T05:25:46;8.34;96.44
66740;DHT22;53653;52.188;8.602;2023-11-21T05:28:12;8.36;96.43
66740;DHT22;53653;52.188;8.602;2023-11-21T05:30:37;8.33;96.42
66740;DHT22;53653;52.188;8.602;2023-11-21T05:33:05;8.33;96.42
66740;DHT22;53653;52.188;8.602;2023-11-21T05:35:30;8.34;96.44
66740;DHT22;53653;52.188;8.602;2023-11-21T05:37:56;8.33;96.48
66740;DHT22;53653;52.188;8.602;2023-11-21T05:40:22;8.37;96.17
66740;DHT22;53653;52.188;8.602;2023-11-21T05:42:47;8.34;96.33
66740;DHT22;53653;52.188;8.602;2023-11-21T05:45:14;8.33;96.33
66740;DHT22;53653;52.188;8.602;2023-11-21T05:47:42;8.33;96.30
66740;DHT22;53653;52.188;8.602;2023-11-21T05:50:09;8.37;96.28
66740;DHT22;53653;52.188;8.602;2023-11-21T05:52:36;8.38;96.24
66740;DHT22;53653;52.188;8.602;2023-11-21T05:55:03;8.41;95.97
66740;DHT22;53653;52.188;8.602;2023-11-21T05:57:33;8.40;96.00
66740;DHT22;53653;52.188;8.602;2023-11-21T05:59:58;8.40;95.97
66740;DHT22;53653;52.188;8.602;2023-11-21T06:02:24;8.38;96.00
66740;DHT22;53653;52.188;8.602;2023-11-21T06:04:51;8.36;96.12
66740;DHT22;53653;52.188;8.602;2023-11-21T06:07:16;8.38;96.15
66740;DHT22;53653;52.188;8.602;2023-11-21T06:09:42;8.38;96.08
66740;DHT22;53653;52.188;8.602;2023-11-21T06:12:09;8.43;96.07
66740;DHT22;53653;52.188;8.602;2023-11-21T06:14:34;8.43;95.93
66740;DHT22;53653;52.188;8.602;2023-11-21T06:17:00;8.41;95.89
66740;DHT22;53653;52.188;8.602;2023-11-21T06:19:26;8.43;96.01
66740;DHT22;53653;52.188;8.602;2023-11-21T06:21:51;8.38;96.02
66740;DHT22;53653;52.188;8.602;2023-11-21T06:24:16;8.37;96.25
66740;DHT22;53653;52.188;8.602;2023-11-21T06:26:45;8.43;96.13
66740;DHT22;53653;52.188;8.602;2023-11-21T06:29:10;8.48;95.81
66740;DHT22;53653;52.188;8.602;2023-11-21T06:31:36;8.50;95.82
66740;DHT22;53653;52.188;8.602;2023-11-21T06:34:01;8.50;95.92
66740;DHT22;53653;52.188;8.602;2023-11-21T06:36:28;8.48;95.85
66740;DHT22;53653;52.188;8.602;2023-11-21T06:38:53;8.50;95.92
66740;DHT22;53653;52.188;8.602;2023-11-21T06:41:20;8.44;95.84
66740;DHT22;53653;52.188;8.602;2023-11-21T06:43:46;8.43;96.12
66740;DHT22;53653;52.188;8.602;2023-11-21T06:46:12;8.45;96.25
66740;DHT22;53653;52.188;8.602;2023-11-21T06:48:42;8.45;96.27
66740;DHT22;53653;52.188;8.602;2023-11-21T06:51:08;8.50;96.20
66740;DHT22;53653;52.188;8.602;2023-11-21T06:53:33;8.43;96.43
66740;DHT22;53653;52.188;8.602;2023-11-21T06:55:59;8.40;96.45
66740;DHT22;53653;52.188;8.602;2023-11-21T06:58:24;8.43;96.51
66740;DHT22;53653;52.188;8.602;2023-11-21T07:00:50;8.37;96.65
66740;DHT22;53653;52.188;8.602;2023-11-21T07:03:15;8.45;96.64
66740;DHT22;53653;52.188;8.602;2023-11-21T07:05:41;8.45;96.69
66740;DHT22;53653;52.188;8.602;2023-11-21T07:08:06;8.48;96.67
66740;DHT22;53653;52.188;8.602;2023-11-21T07:10:33;8.44;96.70
66740;DHT22;53653;52.188;8.602;2023-11-21T07:12:58;8.41;96.94
66740;DHT22;53653;52.188;8.602;2023-11-21T07:15:24;8.45;96.81
66740;DHT22;53653;52.188;8.602;2023-11-21T07:17:51;8.48;96.76
66740;DHT22;53653;52.188;8.602;2023-11-21T07:20:19;8.53;96.83
66740;DHT22;53653;52.188;8.602;2023-11-21T07:22:45;8.51;96.83
66740;DHT22;53653;52.188;8.602;2023-11-21T07:25:10;8.44;97.07
66740;DHT22;53653;52.188;8.602;2023-11-21T07:27:37;8.54;97.04
66740;DHT22;53653;52.188;8.602;2023-11-21T07:30:03;8.58;96.91
66740;DHT22;53653;52.188;8.602;2023-11-21T07:32:31;8.57;97.07
66740;DHT22;53653;52.188;8.602;2023-11-21T07:34:56;8.47;97.52
66740;DHT22;53653;52.188;8.602;2023-11-21T07:37:23;8.48;97.54
66740;DHT22;53653;52.188;8.602;2023-11-21T07:39:49;8.47;97.68
66740;DHT22;53653;52.188;8.602;2023-11-21T07:42:14;8.48;97.73
66740;DHT22;53653;52.188;8.602;2023-11-21T07:44:40;8.61;97.35
66740;DHT22;53653;52.188;8.602;2023-11-21T07:47:05;8.67;97.10
66740;DHT22;53653;52.188;8.602;2023-11-21T07:49:31;8.63;97.10
66740;DHT22;53653;52.188;8.602;2023-11-21T07:51:56;8.53;97.20
66740;DHT22;53653;52.188;8.602;2023-11-21T07:54:22;8.53;97.52
66740;DHT22;53653;52.188;8.602;2023-11-21T07:56:47;8.45;97.74
66740;DHT22;53653;52.188;8.602;2023-11-21T07:59:14;8.45;97.54
66740;DHT22;53653;52.188;8.602;2023-11-21T08:01:40;8.50;97.38
66740;DHT22;53653;52.188;8.602;2023-11-21T08:04:05;8.44;97.75
66740;DHT22;53653;52.188;8.602;2023-11-21T08:06:32;8.45;97.80
66740;DHT22;53653;52.188;8.602;2023-11-21T08:08:58;8.57;97.15
66740;DHT22;53653;52.188;8.602;2023-11-21T08:11:24;8.41;97.45
66740;DHT22;53653;52.188;8.602;2023-11-21T08:13:49;8.45;97.78
66740;DHT22;53653;52.188;8.602;2023-11-21T08:16:15;8.44;97.58
66740;DHT22;53653;52.188;8.602;2023-11-21T08:18:42;8.47;97.68
66740;DHT22;53653;52.188;8.602;2023-11-21T08:21:07;8.38;97.92
66740;DHT22;53653;52.188;8.602;2023-11-21T08:23:33;8.43;97.93
66740;DHT22;53653;52.188;8.602;2023-11-21T08:25:59;8.40;98.13
66740;DHT22;53653;52.188;8.602;2023-11-21T08:28:25;8.37;98.47
66740;DHT22;53653;52.188;8.602;2023-11-21T08:30:53;8.36;98.49
66740;DHT22;53653;52.188;8.602;2023-11-21T08:33:22;8.41;98.40
66740;DHT22;53653;52.188;8.602;2023-11-21T08:35:48;8.44;98.46
66740;DHT22;53653;52.188;8.602;2023-11-21T08:38:14;8.37;98.71
66740;DHT22;53653;52.188;8.602;2023-11-21T08:40:40;8.32;98.89
66740;DHT22;53653;52.188;8.602;2023-11-21T08:43:06;8.33;98.82
66740;DHT22;53653;52.188;8.602;2023-11-21T08:45:32;8.32;99.18
66740;DHT22;53653;52.188;8.602;2023-11-21T08:48:02;8.26;98.88
66740;DHT22;53653;52.188;8.602;2023-11-21T08:50:28;8.17;98.42
66740;DHT22;53653;52.188;8.602;2023-11-21T08:52:54;8.14;98.26
66740;DHT22;53653;52.188;8.602;2023-11-21T08:55:19;8.16;98.05
66740;DHT22;53653;52.188;8.602;2023-11-21T08:57:45;8.09;97.99
66740;DHT22;53653;52.188;8.602;2023-11-21T09:00:12;8.07;97.84
66740;DHT22;53653;52.188;8.602;2023-11-21T09:02:38;8.09;97.67
66740;DHT22;53653;52.188;8.602;2023-11-21T09:05:05;8.07;97.28
66740;DHT22;53653;52.188;8.602;2023-11-21T09:07:31;8.09;97.47
66740;DHT22;53653;52.188;8.602;2023-11-21T09:09:56;8.06;97.34
66740;DHT22;53653;52.188;8.602;2023-11-21T09:12:22;8.07;97.60
66740;DHT22;53653;52.188;8.602;2023-11-21T09:14:47;8.06;97.32
66740;DHT22;53653;52.188;8.602;2023-11-21T09:17:13;8.02;97.65
66740;DHT22;53653;52.188;8.602;2023-11-21T09:19:40;7.95;97.95
66740;DHT22;53653;52.188;8.602;2023-11-21T09:22:05;7.95;98.06
66740;DHT22;53653;52.188;8.602;2023-11-21T09:24:32;7.89;98.30
66740;DHT22;53653;52.188;8.602;2023-11-21T09:26:57;7.89;98.51
66740;DHT22;53653;52.188;8.602;2023-11-21T09:29:23;7.85;98.52
66740;DHT22;53653;52.188;8.602;2023-11-21T09:31:48;7.85;98.72
66740;DHT22;53653;52.188;8.602;2023-11-21T09:34:16;7.81;98.80
66740;DHT22;53653;52.188;8.602;2023-11-21T09:36:45;7.74;98.61
66740;DHT22;53653;52.188;8.602;2023-11-21T09:39:10;7.68;98.73
66740;DHT22;53653;52.188;8.602;2023-11-21T09:41:46;7.71;98.86
66740;DHT22;53653;52.188;8.602;2023-11-21T09:44:17;7.66;98.69
66740;DHT22;53653;52.188;8.602;2023-11-21T09:46:47;7.68;98.75
66740;DHT22;53653;52.188;8.602;2023-11-21T09:49:18;7.65;99.01
66740;DHT22;53653;52.188;8.602;2023-11-21T09:51:46;7.59;98.98
66740;DHT22;53653;52.188;8.602;2023-11-21T09:54:13;7.58;99.16
66740;DHT22;53653;52.188;8.602;2023-11-21T09:56:41;7.50;98.94
66740;DHT22;53653;52.188;8.602;2023-11-21T09:59:11;7.48;99.23
66740;DHT22;53653;52.188;8.602;2023-11-21T10:01:38;7.44;99.11
66740;DHT22;53653;52.188;8.602;2023-11-21T10:04:04;7.43;99.40
66740;DHT22;53653;52.188;8.602;2023-11-21T10:06:31;7.44;99.38
66740;DHT22;53653;52.188;8.602;2023-11-21T10:08:59;7.35;99.41
66740;DHT22;53653;52.188;8.602;2023-11-21T10:11:28;7.30;99.25
66740;DHT22;53653;52.188;8.602;2023-11-21T10:13:55;7.34;99.63
66740;DHT22;53653;52.188;8.602;2023-11-21T10:16:25;7.30;99.15
66740;DHT22;53653;52.188;8.602;2023-11-21T10:18:52;7.28;98.43
66740;DHT22;53653;52.188;8.602;2023-11-21T10:21:18;7.31;97.53
66740;DHT22;53653;52.188;8.602;2023-11-21T10:23:44;7.35;97.07
66740;DHT22;53653;52.188;8.602;2023-11-21T10:26:11;7.35;97.14
66740;DHT22;53653;52.188;8.602;2023-11-21T10:28:54;7.34;96.82
66740;DHT22;53653;52.188;8.602;2023-11-21T10:31:21;7.32;97.12
66740;DHT22;53653;52.188;8.602;2023-11-21T10:33:48;7.38;97.30
66740;DHT22;53653;52.188;8.602;2023-11-21T10:36:24;7.45;97.31
66740;DHT22;53653;52.188;8.602;2023-11-21T10:38:50;7.50;97.23
66740;DHT22;53653;52.188;8.602;2023-11-21T10:41:18;7.41;96.78
66740;DHT22;53653;52.188;8.602;2023-11-21T10:43:44;7.45;96.10
66740;DHT22;53653;52.188;8.602;2023-11-21T10:46:10;7.45;95.77
66740;DHT22;53653;52.188;8.602;2023-11-21T10:48:35;7.40;95.06
66740;DHT22;53653;52.188;8.602;2023-11-21T10:51:06;7.41;95.12
66740;DHT22;53653;52.188;8.602;2023-11-21T10:53:32;7.47;95.78
66740;DHT22;53653;52.188;8.602;2023-11-21T10:56:06;7.48;95.85
66740;DHT22;53653;52.188;8.602;2023-11-21T10:58:35;7.43;95.61
66740;DHT22;53653;52.188;8.602;2023-11-21T11:01:02;7.38;96.00
66740;DHT22;53653;52.188;8.602;2023-11-21T11:03:31;7.34;96.28
66740;DHT22;53653;52.188;8.602;2023-11-21T11:05:59;7.27;96.63
66740;DHT22;53653;52.188;8.602;2023-11-21T11:08:26;7.26;96.94
66740;DHT22;53653;52.188;8.602;2023-11-21T11:10:53;7.27;97.01
66740;DHT22;53653;52.188;8.602;2023-11-21T11:13:18;7.20;97.05
66740;DHT22;53653;52.188;8.602;2023-11-21T11:15:47;7.21;97.57
66740;DHT22;53653;52.188;8.602;2023-11-21T11:18:12;7.18;97.43
66740;DHT22;53653;52.188;8.602;2023-11-21T11:20:40;7.17;97.33
66740;DHT22;53653;52.188;8.602;2023-11-21T11:23:52;7.16;97.45
66740;DHT22;53653;52.188;8.602;2023-11-21T11:26:24;7.11;97.45
66740;DHT22;53653;52.188;8.602;2023-11-21T11:29:08;7.06;97.76
66740;DHT22;53653;52.188;8.602;2023-11-21T11:34:31;6.96;98.05
66740;DHT22;53653;52.188;8.602;2023-11-21T11:37:06;6.89;98.33
66740;DHT22;53653;52.188;8.602;2023-11-21T11:39:37;6.83;98.26
66740;DHT22;53653;52.188;8.602;2023-11-21T11:42:07;6.83;98.04
66740;DHT22;53653;52.188;8.602;2023-11-21T11:50:03;6.62;97.60
66740;DHT22;53653;52.188;8.602;2023-11-21T11:55:09;6.55;96.48
66740;DHT22;53653;52.188;8.602;2023-11-21T11:57:35;6.51;95.95
66740;DHT22;53653;52.188;8.602;2023-11-21T12:00:18;6.58;95.85
66740;DHT22;53653;52.188;8.602;2023-11-21T12:02:55;6.61;95.62
66740;DHT22;53653;52.188;8.602;2023-11-21T12:05:22;6.65;95.25
66740;DHT22;53653;52.188;8.602;2023-11-21T12:07:52;6.65;95.17
66740;DHT22;53653;52.188;8.602;2023-11-21T12:10:21;6.69;94.47
66740;DHT22;53653;52.188;8.602;2023-11-21T12:12:51;6.73;93.79
66740;DHT22;53653;52.188;8.602;2023-11-21T12:15:20;6.80;93.92
66740;DHT22;53653;52.188;8.602;2023-11-21T12:17:47;6.73;93.01
66740;DHT22;53653;52.188;8.602;2023-11-21T12:20:13;6.83;93.41
66740;DHT22;53653;52.188;8.602;2023-11-21T12:22:49;6.86;92.76
66740;DHT22;53653;52.188;8.602;2023-11-21T12:25:22;6.95;92.19
66740;DHT22;53653;52.188;8.602;2023-11-21T12:27:50;7.16;92.37
66740;DHT22;53653;52.188;8.602;2023-11-21T12:30:35;7.37;91.52
66740;DHT22;53653;52.188;8.602;2023-11-21T12:33:03;7.59;91.74
66740;DHT22;53653;52.188;8.602;2023-11-21T12:35:33;7.86;90.07
66740;DHT22;53653;52.188;8.602;2023-11-21T12:38:00;7.76;89.12
66740;DHT22;53653;52.188;8.602;2023-11-21T12:40:26;7.50;87.99
66740;DHT22;53653;52.188;8.602;2023-11-21T12:42:53;7.45;89.09
66740;DHT22;53653;52.188;8.602;2023-11-21T12:45:23;7.47;88.20
66740;DHT22;53653;52.188;8.602;2023-11-21T12:47:55;7.52;88.80
66740;DHT22;53653;52.188;8.602;2023-11-21T12:50:22;7.51;88.10
66740;DHT22;53653;52.188;8.602;2023-11-21T12:52:57;7.51;88.33
66740;DHT22;53653;52.188;8.602;2023-11-21T12:55:23;7.55;87.51
66740;DHT22;53653;52.188;8.602;2023-11-21T12:57:53;7.48;86.93
66740;DHT22;53653;52.188;8.602;2023-11-21T13:00:32;7.50;87.79
66740;DHT22;53653;52.188;8.602;2023-11-21T13:02:59;7.38;86.97
66740;DHT22;53653;52.188;8.602;2023-11-21T13:05:39;7.52;87.71
66740;DHT22;53653;52.188;8.602;2023-11-21T13:08:08;7.52;87.55
66740;DHT22;53653;52.188;8.602;2023-11-21T13:10:39;7.50;87.04
66740;DHT22;53653;52.188;8.602;2023-11-21T13:13:06;7.57;88.12
66740;DHT22;53653;52.188;8.602;2023-11-21T13:15:34;7.59;88.08
66740;DHT22;53653;52.188;8.602;2023-11-21T13:18:03;7.66;88.60
66740;DHT22;53653;52.188;8.602;2023-11-21T13:20:29;7.66;88.08
66740;DHT22;53653;52.188;8.602;2023-11-21T13:22:56;7.58;88.04
66740;DHT22;53653;52.188;8.602;2023-11-21T13:25:27;7.51;87.58
66740;DHT22;53653;52.188;8.602;2023-11-21T13:27:57;7.47;87.28
66740;DHT22;53653;52.188;8.602;2023-11-21T13:30:24;7.41;87.54
66740;DHT22;53653;52.188;8.602;2023-11-21T13:32:54;7.40;87.54
66740;DHT22;53653;52.188;8.602;2023-11-21T13:35:25;7.40;87.83
66740;DHT22;53653;52.188;8.602;2023-11-21T13:38:14;7.48;87.48
66740;DHT22;53653;52.188;8.602;2023-11-21T13:40:47;7.52;86.58
66740;DHT22;53653;52.188;8.602;2023-11-21T13:43:15;7.45;85.90
66740;DHT22;53653;52.188;8.602;2023-11-21T13:45:41;7.43;86.91
66740;DHT22;53653;52.188;8.602;2023-11-21T13:48:08;7.45;86.70
66740;DHT22;53653;52.188;8.602;2023-11-21T13:50:39;7.41;86.64
66740;DHT22;53653;52.188;8.602;2023-11-21T13:53:09;7.35;86.29
66740;DHT22;53653;52.188;8.602;2023-11-21T13:55:51;7.38;86.36
66740;DHT22;53653;52.188;8.602;2023-11-21T13:58:19;7.40;86.19
66740;DHT22;53653;52.188;8.602;2023-11-21T14:00:49;7.35;86.42
66740;DHT22;53653;52.188;8.602;2023-11-21T14:03:23;7.31;85.38
66740;DHT22;53653;52.188;8.602;2023-11-21T14:05:50;7.31;86.41
66740;DHT22;53653;52.188;8.602;2023-11-21T14:08:22;7.26;86.56
66740;DHT22;53653;52.188;8.602;2023-11-21T14:10:54;7.23;87.28
66740;DHT22;53653;52.188;8.602;2023-11-21T14:13:26;7.18;86.36
66740;DHT22;53653;52.188;8.602;2023-11-21T14:15:52;7.23;86.62
66740;DHT22;53653;52.188;8.602;2023-11-21T14:18:25;7.16;86.58
66740;DHT22;53653;52.188;8.602;2023-11-21T14:21:06;7.16;86.59
66740;DHT22;53653;52.188;8.602;2023-11-21T14:23:33;7.17;86.80
66740;DHT22;53653;52.188;8.602;2023-11-21T14:26:01;7.18;86.51
66740;DHT22;53653;52.188;8.602;2023-11-21T14:28:26;7.10;86.81
66740;DHT22;53653;52.188;8.602;2023-11-21T14:30:52;7.07;86.87
66740;DHT22;53653;52.188;8.602;2023-11-21T14:33:17;7.07;86.93
66740;DHT22;53653;52.188;8.602;2023-11-21T14:35:43;7.07;87.28
66740;DHT22;53653;52.188;8.602;2023-11-21T14:38:09;7.04;86.83
66740;DHT22;53653;52.188;8.602;2023-11-21T14:40:36;7.10;86.79
66740;DHT22;53653;52.188;8.602;2023-11-21T14:43:02;7.10;86.19
66740;DHT22;53653;52.188;8.602;2023-11-21T14:45:31;7.06;86.02
66740;DHT22;53653;52.188;8.602;2023-11-21T14:47:56;6.97;85.83
66740;DHT22;53653;52.188;8.602;2023-11-21T14:50:41;6.95;86.34
66740;DHT22;53653;52.188;8.602;2023-11-21T14:53:11;7.00;86.45
66740;DHT22;53653;52.188;8.602;2023-11-21T14:55:39;6.95;86.76
66740;DHT22;53653;52.188;8.602;2023-11-21T14:58:17;6.90;87.57
66740;DHT22;53653;52.188;8.602;2023-11-21T15:00:53;6.87;87.78
66740;DHT22;53653;52.188;8.602;2023-11-21T15:03:24;6.87;87.08
66740;DHT22;53653;52.188;8.602;2023-11-21T15:06:08;6.87;87.39
66740;DHT22;53653;52.188;8.602;2023-11-21T15:08:58;6.90;87.40
66740;DHT22;53653;52.188;8.602;2023-11-21T15:11:33;6.93;87.74
66740;DHT22;53653;52.188;8.602;2023-11-21T15:13:58;6.92;87.93
66740;DHT22;53653;52.188;8.602;2023-11-21T15:16:24;6.92;87.85
66740;DHT22;53653;52.188;8.602;2023-11-21T15:18:52;6.93;87.27
66740;DHT22;53653;52.188;8.602;2023-11-21T15:21:19;6.92;87.45
66740;DHT22;53653;52.188;8.602;2023-11-21T15:23:46;6.89;87.33
66740;DHT22;53653;52.188;8.602;2023-11-21T15:26:12;6.87;87.69
66740;DHT22;53653;52.188;8.602;2023-11-21T15:28:37;6.95;87.96
66740;DHT22;53653;52.188;8.602;2023-11-21T15:31:03;6.92;87.60
66740;DHT22;53653;52.188;8.602;2023-11-21T15:33:29;6.90;87.91
66740;DHT22;53653;52.188;8.602;2023-11-21T15:35:55;6.86;87.85
66740;DHT22;53653;52.188;8.602;2023-11-21T15:38:20;6.86;88.15
66740;DHT22;53653;52.188;8.602;2023-11-21T15:40:47;6.82;87.70
66740;DHT22;53653;52.188;8.602;2023-11-21T15:43:12;6.90;87.97
66740;DHT22;53653;52.188;8.602;2023-11-21T15:45:39;6.92;88.05
66740;DHT22;53653;52.188;8.602;2023-11-21T15:48:05;6.89;87.87
66740;DHT22;53653;52.188;8.602;2023-11-21T15:50:31;6.87;88.38
66740;DHT22;53653;52.188;8.602;2023-11-21T15:53:00;6.89;88.22
66740;DHT22;53653;52.188;8.602;2023-11-21T15:55:26;6.90;87.96
66740;DHT22;53653;52.188;8.602;2023-11-21T15:57:52;6.83;88.10